createdAt,value
2018-02-24T00:01:16.261Z,29.73
2018-02-24T00:03:43.288Z,44.23
2018-02-24T00:06:10.409Z,34.03
2018-02-24T00:08:37.194Z,27.20
2018-02-24T00:11:04.167Z,35.80
2018-02-24T00:13:30.399Z,35.60
2018-02-24T00:15:56.655Z,35.10
2018-02-24T00:18:22.925Z,36.03
2018-02-24T00:20:49.286Z,33.77
2018-02-24T00:23:15.612Z,28.17
2018-02-24T00:25:42.185Z,33.37
2018-02-24T00:28:08.557Z,31.67
2018-02-24T00:30:35.572Z,29.93
2018-02-24T00:33:02.893Z,33.07
2018-02-24T00:35:29.116Z,30.13
2018-02-24T00:37:55.312Z,32.33
2018-02-24T00:40:22.303Z,28.20
2018-02-24T00:42:48.545Z,26.77
2018-02-24T00:45:14.856Z,20.97
2018-02-24T00:47:41.116Z,32.13
2018-02-24T00:50:07.405Z,31.07
2018-02-24T00:52:33.701Z,29.30
2018-02-24T00:55:00.667Z,30.33
2018-02-24T00:57:26.953Z,29.37
2018-02-24T00:59:54.072Z,29.23
2018-02-24T01:02:20.386Z,26.80
2018-02-24T01:04:46.600Z,28.43
2018-02-24T01:07:12.857Z,25.17
2018-02-24T01:09:40.169Z,27.30
2018-02-24T01:12:06.445Z,22.80
2018-02-24T01:14:32.655Z,29.33
2018-02-24T01:16:58.902Z,31.73
2018-02-24T01:19:25.142Z,31.10
2018-02-24T01:21:51.383Z,32.33
2018-02-24T01:24:17.566Z,30.80
2018-02-24T01:26:43.826Z,32.17
2018-02-24T01:29:10.053Z,32.13
2018-02-24T01:31:36.284Z,42.37
2018-02-24T01:34:02.591Z,30.93
2018-02-24T01:36:28.800Z,33.60
2018-02-24T01:38:55.019Z,35.30
2018-02-24T01:41:21.253Z,34.20
2018-02-24T01:43:47.515Z,35.30
2018-02-24T01:46:13.710Z,33.23
2018-02-24T01:48:39.888Z,37.83
2018-02-24T01:51:06.112Z,33.00
2018-02-24T01:53:32.421Z,30.37
2018-02-24T01:55:58.661Z,29.57
2018-02-24T01:58:24.896Z,31.13
2018-02-24T02:00:51.108Z,26.43
2018-02-24T02:03:17.337Z,29.50
2018-02-24T02:05:43.613Z,28.83
2018-02-24T02:08:10.572Z,27.00
2018-02-24T02:10:36.831Z,27.23
2018-02-24T02:13:03.013Z,26.67
2018-02-24T02:15:29.235Z,24.40
2018-02-24T02:17:56.209Z,28.10
2018-02-24T02:20:22.432Z,24.00
2018-02-24T02:22:48.700Z,26.57
2018-02-24T02:25:14.942Z,27.63
2018-02-24T02:27:41.166Z,26.27
2018-02-24T02:30:08.875Z,27.80
2018-02-24T02:32:35.116Z,29.23
2018-02-24T02:35:01.348Z,26.77
2018-02-24T02:37:27.631Z,26.20
2018-02-24T02:39:54.640Z,29.13
2018-02-24T02:42:20.884Z,26.43
2018-02-24T02:44:47.133Z,22.10
2018-02-24T02:47:14.177Z,24.77
2018-02-24T02:49:41.205Z,22.17
2018-02-24T02:52:07.442Z,21.87
2018-02-24T02:54:33.749Z,23.60
2018-02-24T02:57:00.017Z,26.30
2018-02-24T02:59:26.259Z,24.67
2018-02-24T03:01:52.560Z,22.50
2018-02-24T03:04:19.404Z,20.20
2018-02-24T03:06:46.829Z,24.00
2018-02-24T03:09:13.523Z,21.43
2018-02-24T03:11:39.978Z,23.27
2018-02-24T03:14:06.184Z,20.23
2018-02-24T03:16:33.409Z,23.17
2018-02-24T03:18:59.634Z,26.13
2018-02-24T03:21:26.882Z,24.20
2018-02-24T03:23:53.105Z,21.20
2018-02-24T03:26:19.341Z,17.80
2018-02-24T03:28:46.479Z,27.90
2018-02-24T03:31:12.862Z,16.93
2018-02-24T03:33:39.124Z,23.03
2018-02-24T03:36:05.371Z,21.60
2018-02-24T03:38:31.644Z,19.13
2018-02-24T03:40:57.865Z,19.17
2018-02-24T03:43:26.441Z,19.63
2018-02-24T03:45:56.619Z,20.83
2018-02-24T03:48:22.865Z,22.00
2018-02-24T03:50:49.967Z,20.33
2018-02-24T03:53:16.271Z,21.80
2018-02-24T03:55:42.702Z,19.90
2018-02-24T03:58:09.192Z,24.87
2018-02-24T04:00:35.414Z,23.80
2018-02-24T04:03:01.664Z,25.63
2018-02-24T04:05:28.628Z,34.47
2018-02-24T04:07:54.938Z,27.47
2018-02-24T04:10:21.197Z,20.20
2018-02-24T04:12:47.428Z,20.27
2018-02-24T04:15:13.655Z,22.60
2018-02-24T04:17:39.889Z,20.73
2018-02-24T04:20:06.131Z,24.70
2018-02-24T04:22:32.808Z,28.37
2018-02-24T04:24:59.068Z,22.70
2018-02-24T04:27:25.233Z,19.00
2018-02-24T04:29:52.220Z,21.70
2018-02-24T04:32:18.532Z,19.70
2018-02-24T04:34:44.736Z,20.13
2018-02-24T04:37:10.966Z,19.57
2018-02-24T04:39:37.903Z,18.73
2018-02-24T04:42:04.828Z,20.07
2018-02-24T04:44:30.980Z,21.03
2018-02-24T04:46:57.896Z,18.77
2018-02-24T04:49:24.084Z,21.10
2018-02-24T04:51:50.309Z,23.70
2018-02-24T04:54:16.496Z,21.97
2018-02-24T04:56:50.600Z,21.73
2018-02-24T04:59:17.540Z,21.53
2018-02-24T05:01:44.465Z,24.07
2018-02-24T05:04:10.687Z,32.83
2018-02-24T05:06:36.883Z,22.97
2018-02-24T05:09:03.101Z,20.43
2018-02-24T05:11:29.286Z,20.13
2018-02-24T05:13:56.253Z,21.60
2018-02-24T05:16:22.472Z,25.50
2018-02-24T05:18:48.667Z,21.77
2018-02-24T05:21:14.889Z,21.13
2018-02-24T05:23:41.976Z,21.60
2018-02-24T05:26:08.963Z,21.90
2018-02-24T05:28:35.127Z,22.97
2018-02-24T05:31:01.360Z,20.87
2018-02-24T05:33:27.545Z,20.93
2018-02-24T05:35:53.712Z,18.40
2018-02-24T05:38:19.895Z,19.90
2018-02-24T05:40:46.059Z,24.20
2018-02-24T05:43:12.252Z,21.47
2018-02-24T05:45:38.428Z,21.43
2018-02-24T05:48:04.605Z,22.70
2018-02-24T05:50:30.834Z,18.73
2018-02-24T05:52:57.100Z,20.20
2018-02-24T05:55:24.159Z,21.03
2018-02-24T05:57:50.492Z,26.93
2018-02-24T06:00:16.701Z,20.47
2018-02-24T06:02:42.907Z,16.47
2018-02-24T06:05:09.268Z,20.10
2018-02-24T06:07:35.520Z,15.20
2018-02-24T06:10:01.670Z,17.50
2018-02-24T06:12:27.863Z,13.50
2018-02-24T06:14:54.788Z,13.73
2018-02-24T06:17:21.755Z,16.63
2018-02-24T06:19:47.914Z,15.70
2018-02-24T06:22:14.111Z,13.37
2018-02-24T06:24:40.292Z,15.93
2018-02-24T06:27:06.556Z,14.57
2018-02-24T06:29:33.508Z,11.50
2018-02-24T06:31:59.739Z,11.60
2018-02-24T06:34:25.946Z,9.70
2018-02-24T06:36:52.876Z,11.90
2018-02-24T06:39:19.821Z,10.43
2018-02-24T06:41:46.043Z,8.10
2018-02-24T06:44:12.315Z,8.97
2018-02-24T06:46:39.383Z,9.33
2018-02-24T06:49:05.579Z,6.53
2018-02-24T06:51:31.786Z,6.33
2018-02-24T06:53:58.730Z,5.47
2018-02-24T06:56:25.035Z,4.07
2018-02-24T06:58:52.006Z,8.80
2018-02-24T07:01:18.256Z,4.07
2018-02-24T07:03:44.438Z,6.03
2018-02-24T07:06:10.660Z,5.23
2018-02-24T07:08:36.877Z,4.60
2018-02-24T07:11:03.100Z,4.33
2018-02-24T07:13:29.339Z,5.90
2018-02-24T07:15:55.686Z,6.30
2018-02-24T07:18:21.892Z,3.90
2018-02-24T07:20:48.126Z,9.60
2018-02-24T07:23:14.352Z,3.70
2018-02-24T07:25:40.567Z,4.93
2018-02-24T07:28:06.875Z,8.87
2018-02-24T07:30:33.260Z,1.97
2018-02-24T07:33:00.275Z,1.90
2018-02-24T07:35:26.520Z,2.27
2018-02-24T07:37:53.462Z,2.10
2018-02-24T07:40:19.716Z,1.37
2018-02-24T07:42:46.638Z,3.13
2018-02-24T07:45:13.822Z,3.00
2018-02-24T07:47:40.038Z,2.10
2018-02-24T07:50:06.237Z,3.90
2018-02-24T07:52:32.524Z,2.97
2018-02-24T07:54:58.732Z,2.40
2018-02-24T07:57:24.939Z,2.30
2018-02-24T07:59:51.129Z,20.03
2018-02-24T08:02:17.332Z,2.20
2018-02-24T08:04:43.578Z,5.20
2018-02-24T08:07:09.795Z,2.00
2018-02-24T08:09:35.979Z,1.37
2018-02-24T08:12:02.895Z,2.67
2018-02-24T08:14:29.144Z,1.60
2018-02-24T08:16:56.080Z,2.93
2018-02-24T08:19:22.320Z,3.43
2018-02-24T08:21:48.537Z,1.10
2018-02-24T08:24:15.566Z,2.10
2018-02-24T08:26:41.771Z,1.93
2018-02-24T08:29:07.969Z,3.43
2018-02-24T08:31:34.499Z,1.93
2018-02-24T08:34:02.059Z,1.33
2018-02-24T08:36:28.389Z,1.50
2018-02-24T08:38:54.790Z,2.90
2018-02-24T08:41:21.050Z,2.37
2018-02-24T08:43:47.267Z,1.33
2018-02-24T08:46:13.496Z,1.80
2018-02-24T08:48:39.825Z,1.93
2018-02-24T08:51:06.032Z,7.73
2018-02-24T08:53:33.000Z,3.33
2018-02-24T08:55:59.224Z,5.53
2018-02-24T08:58:25.448Z,3.73
2018-02-24T09:00:52.503Z,7.30
2018-02-24T09:03:18.842Z,6.53
2018-02-24T09:05:45.078Z,4.43
2018-02-24T09:08:11.331Z,1.30
2018-02-24T09:10:37.552Z,1.40
2018-02-24T09:13:03.803Z,6.27
2018-02-24T09:15:29.996Z,1.47
2018-02-24T09:17:56.163Z,2.40
2018-02-24T09:20:22.393Z,4.33
2018-02-24T09:22:48.595Z,2.93
2018-02-24T09:25:14.771Z,2.60
2018-02-24T09:27:41.147Z,2.60
2018-02-24T09:30:08.147Z,2.70
2018-02-24T09:32:35.274Z,1.63
2018-02-24T09:35:02.321Z,3.03
2018-02-24T09:37:29.377Z,5.27
2018-02-24T09:39:55.624Z,2.80
2018-02-24T09:42:21.849Z,2.13
2018-02-24T09:44:48.025Z,16.30
2018-02-24T09:47:14.284Z,2.23
2018-02-24T09:49:40.675Z,3.67
2018-02-24T09:52:06.856Z,2.97
2018-02-24T09:54:33.071Z,7.80
2018-02-24T09:56:59.248Z,2.57
2018-02-24T09:59:25.466Z,2.10
2018-02-24T10:01:51.664Z,4.10
2018-02-24T10:04:17.846Z,2.47
2018-02-24T10:06:44.151Z,1.90
2018-02-24T10:09:10.342Z,7.00
2018-02-24T10:11:36.569Z,4.57
2018-02-24T10:14:02.807Z,3.23
2018-02-24T10:16:29.027Z,2.80
2018-02-24T10:18:55.241Z,2.43
2018-02-24T10:21:22.243Z,4.77
2018-02-24T10:23:48.404Z,2.80
2018-02-24T10:26:15.322Z,2.57
2018-02-24T10:28:41.581Z,3.70
2018-02-24T10:31:07.865Z,10.13
2018-02-24T10:33:34.831Z,3.27
2018-02-24T10:36:01.824Z,2.60
2018-02-24T10:38:28.069Z,2.50
2018-02-24T10:40:54.255Z,3.37
2018-02-24T10:43:21.400Z,2.70
2018-02-24T10:45:48.385Z,3.27
2018-02-24T10:48:14.590Z,2.17
2018-02-24T10:50:40.944Z,4.27
2018-02-24T10:53:08.168Z,2.67
2018-02-24T10:55:34.380Z,2.17
2018-02-24T10:58:00.675Z,3.00
2018-02-24T11:00:26.929Z,2.60
2018-02-24T11:02:53.878Z,1.90
2018-02-24T11:05:20.029Z,6.07
2018-02-24T11:07:46.261Z,3.73
2018-02-24T11:10:12.480Z,3.80
2018-02-24T11:12:38.696Z,4.07
2018-02-24T11:15:04.906Z,5.03
2018-02-24T11:17:31.123Z,2.20
2018-02-24T11:19:57.364Z,3.67
2018-02-24T11:22:24.436Z,7.50
2018-02-24T11:24:50.670Z,8.57
2018-02-24T11:27:16.837Z,21.70
2018-02-24T11:29:43.034Z,4.20
2018-02-24T11:32:09.247Z,4.50
2018-02-24T11:34:35.645Z,2.30
2018-02-24T11:37:02.698Z,2.50
2018-02-24T11:39:35.868Z,3.97
2018-02-24T11:42:02.098Z,2.23
2018-02-24T11:44:28.279Z,5.03
2018-02-24T11:46:54.456Z,2.57
2018-02-24T11:49:21.400Z,9.23
2018-02-24T11:51:47.620Z,2.20
2018-02-24T11:54:13.853Z,5.73
2018-02-24T11:59:33.090Z,6.67
2018-02-24T12:02:00.893Z,2.33
2018-02-24T12:04:27.779Z,4.83
2018-02-24T12:06:55.349Z,3.57
2018-02-24T12:09:21.889Z,8.97
2018-02-24T12:11:48.129Z,3.37
2018-02-24T12:14:14.675Z,5.03
2018-02-24T12:16:41.347Z,6.47
2018-02-24T12:19:08.434Z,3.07
2018-02-24T12:21:35.364Z,3.10
2018-02-24T12:24:02.628Z,4.00
2018-02-24T12:26:29.075Z,2.20
2018-02-24T12:28:55.710Z,2.57
2018-02-24T12:31:22.824Z,5.33
2018-02-24T12:33:49.195Z,3.07
2018-02-24T12:36:15.459Z,4.53
2018-02-24T12:38:42.689Z,2.67
2018-02-24T12:41:08.958Z,3.13
2018-02-24T12:43:35.242Z,4.67
2018-02-24T12:46:01.467Z,5.60
2018-02-24T12:48:27.741Z,5.37
2018-02-24T12:50:56.081Z,2.30
2018-02-24T12:53:22.494Z,4.00
2018-02-24T12:55:49.738Z,2.83
2018-02-24T12:58:16.214Z,2.00
2018-02-24T13:00:42.515Z,4.37
2018-02-24T13:03:08.813Z,1.97
2018-02-24T13:05:36.328Z,1.27
2018-02-24T13:08:06.773Z,5.13
2018-02-24T13:10:33.001Z,1.83
2018-02-24T13:12:59.384Z,2.13
2018-02-24T13:15:25.665Z,2.20
2018-02-24T13:17:51.877Z,2.30
2018-02-24T13:20:18.226Z,6.37
2018-02-24T13:22:45.326Z,2.57
2018-02-24T13:25:11.533Z,4.70
2018-02-24T13:27:38.522Z,2.33
2018-02-24T13:30:05.563Z,3.33
2018-02-24T13:32:31.844Z,4.13
2018-02-24T13:34:58.463Z,3.70
2018-02-24T13:37:25.708Z,4.67
2018-02-24T13:39:51.997Z,2.87
2018-02-24T13:42:18.251Z,3.80
2018-02-24T13:44:44.532Z,3.90
2018-02-24T13:47:11.553Z,3.70
2018-02-24T13:49:38.572Z,2.33
2018-02-24T13:52:04.886Z,2.03
2018-02-24T13:54:31.128Z,2.53
2018-02-24T13:56:57.332Z,3.43
2018-02-24T13:59:23.588Z,2.60
2018-02-24T14:01:49.814Z,2.77
2018-02-24T14:04:16.057Z,3.00
2018-02-24T14:06:42.260Z,4.77
2018-02-24T14:09:09.407Z,2.73
2018-02-24T14:11:35.792Z,3.57
2018-02-24T14:14:04.785Z,3.80
2018-02-24T14:16:31.103Z,8.20
2018-02-24T14:18:58.109Z,2.87
2018-02-24T14:21:24.490Z,2.60
2018-02-24T14:23:50.790Z,4.73
2018-02-24T14:26:17.129Z,5.47
2018-02-24T14:28:44.229Z,17.60
2018-02-24T14:31:11.479Z,10.77
2018-02-24T14:33:37.837Z,5.00
2018-02-24T14:36:04.099Z,5.20
2018-02-24T14:38:31.138Z,7.60
2018-02-24T14:40:58.181Z,11.27
2018-02-24T14:43:24.534Z,3.77
2018-02-24T14:45:51.573Z,8.27
2018-02-24T14:48:18.555Z,4.70
2018-02-24T14:50:44.841Z,7.90
2018-02-24T14:53:11.146Z,3.10
2018-02-24T14:55:37.464Z,6.50
2018-02-24T14:58:04.502Z,4.10
2018-02-24T15:00:30.774Z,6.37
2018-02-24T15:02:57.062Z,5.10
2018-02-24T15:05:23.385Z,3.50
2018-02-24T15:07:49.643Z,3.93
2018-02-24T15:10:16.652Z,3.63
2018-02-24T15:12:42.974Z,3.40
2018-02-24T15:15:09.292Z,3.93
2018-02-24T15:17:35.809Z,2.97
2018-02-24T15:20:02.982Z,4.17
2018-02-24T15:22:29.444Z,4.10
2018-02-24T15:24:55.814Z,5.60
2018-02-24T15:27:22.086Z,4.10
2018-02-24T15:29:48.582Z,3.87
2018-02-24T15:32:15.752Z,7.60
2018-02-24T15:34:44.250Z,9.33
2018-02-24T15:37:10.585Z,4.43
2018-02-24T15:39:36.956Z,2.83
2018-02-24T15:42:03.249Z,6.70
2018-02-24T15:44:29.632Z,7.07
2018-02-24T15:46:55.916Z,3.33
2018-02-24T15:49:22.343Z,4.60
2018-02-24T15:51:48.863Z,5.70
2018-02-24T15:54:15.404Z,4.97
2018-02-24T15:56:42.658Z,7.07
2018-02-24T15:59:10.500Z,3.37
2018-02-24T16:01:36.826Z,3.13
2018-02-24T16:04:04.054Z,5.37
2018-02-24T16:06:31.156Z,7.23
2018-02-24T16:08:57.551Z,3.87
2018-02-24T16:11:23.951Z,4.07
2018-02-24T16:13:50.469Z,2.93
2018-02-24T16:16:17.553Z,4.50
2018-02-24T16:18:44.492Z,3.67
2018-02-24T16:21:10.916Z,4.83
2018-02-24T16:23:37.198Z,3.30
2018-02-24T16:26:03.543Z,4.07
2018-02-24T16:28:29.891Z,3.67
2018-02-24T16:30:56.285Z,4.43
2018-02-24T16:33:22.745Z,3.87
2018-02-24T16:35:49.034Z,4.30
2018-02-24T16:38:16.378Z,3.07
2018-02-24T16:40:43.716Z,3.93
2018-02-24T16:43:10.018Z,12.13
2018-02-24T16:45:36.331Z,3.00
2018-02-24T16:48:02.680Z,3.50
2018-02-24T16:50:28.951Z,3.83
2018-02-24T16:52:55.991Z,5.77
2018-02-24T16:55:22.451Z,6.70
2018-02-24T16:57:49.678Z,9.93
2018-02-24T17:00:16.771Z,18.07
2018-02-24T17:02:43.013Z,6.97
2018-02-24T17:05:09.368Z,4.57
2018-02-24T17:07:35.662Z,16.70
2018-02-24T17:10:02.234Z,11.30
2018-02-24T17:12:29.417Z,7.03
2018-02-24T17:14:55.800Z,6.10
2018-02-24T17:17:22.048Z,6.67
2018-02-24T17:19:48.489Z,6.00
2018-02-24T17:22:15.633Z,9.63
2018-02-24T17:24:41.998Z,5.63
2018-02-24T17:27:08.365Z,6.50
2018-02-24T17:29:34.606Z,17.53
2018-02-24T17:32:00.875Z,10.13
2018-02-24T17:34:28.235Z,10.70
2018-02-24T17:36:54.597Z,8.97
2018-02-24T17:39:21.012Z,7.50
2018-02-24T17:41:47.427Z,7.13
2018-02-24T17:44:14.696Z,5.73
2018-02-24T17:46:40.965Z,7.23
2018-02-24T17:49:07.335Z,15.03
2018-02-24T17:51:34.322Z,9.93
2018-02-24T17:54:00.651Z,12.40
2018-02-24T17:56:27.666Z,16.57
2018-02-24T17:58:54.681Z,8.50
2018-02-24T18:01:20.911Z,11.23
2018-02-24T18:03:47.205Z,9.13
2018-02-24T18:06:14.922Z,16.73
2018-02-24T18:08:41.530Z,12.60
2018-02-24T18:11:08.835Z,9.97
2018-02-24T18:13:35.735Z,6.97
2018-02-24T18:16:06.425Z,6.50
2018-02-24T18:18:32.779Z,7.83
2018-02-24T18:20:59.069Z,8.37
2018-02-24T18:23:25.337Z,8.80
2018-02-24T18:25:51.662Z,7.60
2018-02-24T18:28:17.900Z,7.03
2018-02-24T18:30:44.174Z,6.73
2018-02-24T18:33:19.062Z,8.27
2018-02-24T18:35:46.101Z,7.03
2018-02-24T18:38:12.425Z,8.17
2018-02-24T18:40:38.996Z,6.50
2018-02-24T18:43:05.344Z,7.23
2018-02-24T18:45:31.656Z,6.70
2018-02-24T18:47:58.146Z,8.00
2018-02-24T18:50:24.932Z,5.73
2018-02-24T18:52:51.234Z,4.00
2018-02-24T18:55:17.421Z,7.90
2018-02-24T18:57:43.773Z,4.83
2018-02-24T19:00:12.257Z,7.20
2018-02-24T19:02:39.602Z,5.00
2018-02-24T19:05:06.851Z,7.47
2018-02-24T19:07:34.532Z,7.50
2018-02-24T19:10:01.115Z,6.30
2018-02-24T19:12:29.437Z,4.33
2018-02-24T19:14:55.846Z,5.03
2018-02-24T19:17:22.165Z,4.80
2018-02-24T19:19:48.514Z,4.33
2018-02-24T19:22:14.821Z,3.33
2018-02-24T19:24:41.039Z,3.50
2018-02-24T19:27:07.436Z,5.57
2018-02-24T19:29:33.924Z,5.70
2018-02-24T19:32:00.219Z,5.90
2018-02-24T19:34:26.453Z,6.33
2018-02-24T19:36:52.852Z,7.67
2018-02-24T19:39:19.297Z,7.50
2018-02-24T19:41:45.632Z,5.50
2018-02-24T19:44:12.015Z,5.40
2018-02-24T19:46:38.352Z,5.47
2018-02-24T19:49:04.641Z,10.20
2018-02-24T19:51:30.967Z,7.53
2018-02-24T19:56:31.764Z,7.97
2018-02-24T19:58:58.036Z,10.10
2018-02-24T20:01:25.022Z,5.07
2018-02-24T20:03:51.287Z,8.23
2018-02-24T20:06:17.599Z,4.30
2018-02-24T20:08:43.964Z,6.60
2018-02-24T20:11:11.051Z,6.23
2018-02-24T20:13:37.328Z,4.13
2018-02-24T20:16:03.613Z,4.40
2018-02-24T20:18:36.918Z,7.93
2018-02-24T20:21:03.334Z,7.10
2018-02-24T20:23:29.678Z,8.90
2018-02-24T20:25:55.924Z,7.37
2018-02-24T20:28:22.265Z,7.90
2018-02-24T20:30:48.601Z,8.07
2018-02-24T20:33:14.833Z,10.53
2018-02-24T20:35:41.223Z,6.23
2018-02-24T20:38:08.396Z,8.37
2018-02-24T20:40:35.490Z,7.07
2018-02-24T20:43:01.795Z,6.70
2018-02-24T20:45:28.305Z,6.87
2018-02-24T20:47:54.593Z,7.97
2018-02-24T20:50:21.712Z,6.67
2018-02-24T20:52:48.804Z,8.27
2018-02-24T20:55:15.174Z,5.10
2018-02-24T20:57:41.436Z,8.63
2018-02-24T21:00:07.798Z,6.90
2018-02-24T21:02:34.144Z,6.27
2018-02-24T21:05:00.451Z,7.50
2018-02-24T21:07:26.774Z,7.67
2018-02-24T21:09:53.026Z,6.23
2018-02-24T21:12:19.295Z,5.73
2018-02-24T21:14:45.518Z,7.27
2018-02-24T21:17:12.477Z,6.10
2018-02-24T21:19:39.543Z,12.50
2018-02-24T21:22:05.762Z,6.17
2018-02-24T21:24:32.141Z,9.03
2018-02-24T21:26:58.621Z,9.37
2018-02-24T21:29:25.656Z,8.07
2018-02-24T21:31:51.859Z,6.77
2018-02-24T21:34:18.116Z,6.93
2018-02-24T21:36:45.149Z,7.57
2018-02-24T21:39:11.647Z,6.70
2018-02-24T21:41:37.993Z,4.77
2018-02-24T21:44:05.019Z,5.50
2018-02-24T21:46:31.630Z,5.00
2018-02-24T21:48:58.093Z,5.23
2018-02-24T21:51:25.270Z,8.27
2018-02-24T21:53:51.644Z,12.33
2018-02-24T21:56:18.011Z,7.47
2018-02-24T21:58:44.353Z,7.70
2018-02-24T22:01:10.795Z,6.03
2018-02-24T22:03:37.065Z,9.07
2018-02-24T22:06:04.048Z,8.10
2018-02-24T22:08:30.542Z,10.33
2018-02-24T22:10:56.809Z,7.17
2018-02-24T22:13:23.030Z,6.70
2018-02-24T22:15:49.329Z,8.43
2018-02-24T22:18:16.326Z,8.63
2018-02-24T22:20:42.640Z,6.50
2018-02-24T22:23:08.878Z,7.93
2018-02-24T22:25:35.108Z,6.07
2018-02-24T22:28:01.359Z,8.17
2018-02-24T22:30:28.383Z,7.00
2018-02-24T22:32:54.749Z,8.10
2018-02-24T22:35:20.998Z,10.17
2018-02-24T22:37:47.994Z,11.83
2018-02-24T22:40:14.265Z,11.13
2018-02-24T22:42:41.315Z,13.43
2018-02-24T22:45:09.437Z,7.90
2018-02-24T22:47:41.862Z,14.90
2018-02-24T22:50:08.986Z,8.60
2018-02-24T22:52:35.380Z,6.43
2018-02-24T22:55:01.675Z,14.27
2018-02-24T22:57:28.678Z,7.70
2018-02-24T22:59:54.983Z,8.70
2018-02-24T23:02:21.203Z,9.33
2018-02-24T23:04:47.410Z,12.80
2018-02-24T23:07:13.669Z,6.57
2018-02-24T23:09:39.915Z,9.20
2018-02-24T23:12:06.214Z,12.90
2018-02-24T23:14:32.473Z,9.13
2018-02-24T23:16:59.048Z,8.57
2018-02-24T23:19:25.394Z,10.03
2018-02-24T23:21:51.790Z,10.43
2018-02-24T23:24:18.104Z,12.00
2018-02-24T23:26:44.449Z,11.73
2018-02-24T23:29:10.834Z,11.97
2018-02-24T23:31:37.166Z,8.53
2018-02-24T23:37:02.851Z,9.83
2018-02-24T23:39:29.314Z,5.80
2018-02-24T23:41:55.598Z,6.47
2018-02-24T23:44:22.602Z,7.40
2018-02-24T23:46:48.860Z,11.63
2018-02-24T23:49:15.817Z,8.43
2018-02-24T23:51:42.950Z,8.10
2018-02-24T23:54:09.343Z,5.60
2018-02-24T23:56:35.596Z,10.37
2018-02-24T23:59:01.869Z,7.67
